Longrun, Missouri
Current Conditions -  °F | °C
As of 4:53 PM on Saturday 25 Oct 2014 (Local Time) from KBPK Reporting Station
Clear Clear  
Wind Chill: 83°   Ceiling: Unl
Heat Index: 84°   Visibility: 8mi
Dew Point: 62°   Wind: 3mph
Humidity: 49%   Direction: NA
Pressure: 30.01"   Gusts: NA
Location:  36.5847°N, 92.7117°W
Report Text: KBPK 252153Z AUTO VRB03KT 8SM CLR 28/17 A3001 RMK AO2 SLP156 T02830167
Loading
Personal Weather Stations






























Interactive Weather Map
Tropical Storm Tracking
New forecast layout! Learn more

10-Day Weather Forecast

Advertisements
Track Severe Weather on mobile